Time;durP1;ratioP1;P1;durP2;ratioP2;P2;SDS_P1;SDS_P2;PMS_P1;PMS_P2;Temp;Humidity;BMP_temperature;BMP_pressure;BME280_temperature;BME280_humidity;BME280_pressure;Samples;Min_cycle;Max_cycle;Signal;HPM_P1;HPM_P2
2023/12/18 00:00:06;;;;;;;48.20;21.85;;;-0.40;99.90;;;;;;5038732;28;20059;-89
2023/12/18 00:02:31;;;;;;;50.10;23.85;;;-0.30;99.90;;;;;;5038301;28;20120;-89
2023/12/18 00:04:57;;;;;;;51.10;24.50;;;-0.30;99.90;;;;;;5038152;28;20068;-89
2023/12/18 00:07:23;;;;;;;63.67;27.75;;;-0.30;99.90;;;;;;5037956;28;20025;-89
2023/12/18 00:09:48;;;;;;;58.80;27.67;;;-0.30;99.90;;;;;;5021332;28;20110;-89
2023/12/18 00:12:14;;;;;;;59.92;29.80;;;-0.20;99.90;;;;;;5021630;28;20036;-89
2023/12/18 00:15:08;;;;;;;62.53;29.85;;;-0.20;99.90;;;;;;5037904;28;20028;-89
2023/12/18 00:17:34;;;;;;;64.22;28.83;;;-0.10;99.90;;;;;;5037906;28;20357;-90
2023/12/18 00:19:59;;;;;;;75.50;33.80;;;0.00;99.90;;;;;;5037514;28;20029;-88
2023/12/18 00:22:25;;;;;;;61.53;27.88;;;0.00;99.90;;;;;;5037695;28;20025;-89
2023/12/18 00:24:51;;;;;;;68.75;30.80;;;0.00;99.90;;;;;;5037852;28;20045;-89
2023/12/18 00:27:16;;;;;;;66.55;30.77;;;0.00;99.90;;;;;;5037538;28;20079;-89
2023/12/18 00:29:42;;;;;;;101.43;39.38;;;0.00;99.90;;;;;;5038312;28;20021;-89
2023/12/18 00:32:08;;;;;;;98.15;39.28;;;0.00;99.90;;;;;;5037418;28;20101;-89
2023/12/18 00:34:33;;;;;;;81.07;34.30;;;0.20;99.90;;;;;;5037077;28;20476;-89
2023/12/18 00:36:59;;;;;;;91.22;38.80;;;0.30;99.90;;;;;;5038995;28;20029;-89
2023/12/18 00:39:25;;;;;;;91.78;37.90;;;0.30;99.90;;;;;;5037824;28;20133;-89
2023/12/18 00:41:51;;;;;;;90.80;37.17;;;0.40;99.90;;;;;;5037995;28;20064;-89
2023/12/18 00:44:17;;;;;;;102.75;37.80;;;0.40;99.90;;;;;;5038363;28;20522;-89
2023/12/18 00:46:43;;;;;;;98.28;40.78;;;0.50;99.90;;;;;;5038195;28;20124;-89
2023/12/18 00:49:09;;;;;;;99.13;40.10;;;0.50;99.90;;;;;;5038203;28;20401;-89
2023/12/18 00:51:34;;;;;;;110.00;41.97;;;0.60;99.90;;;;;;5038380;28;20044;-89
2023/12/18 00:57:47;;;;;;;110.53;42.67;;;0.60;99.90;;;;;;5038947;28;20109;-89
2023/12/18 01:00:13;;;;;;;121.97;45.08;;;0.60;99.90;;;;;;5037936;28;20041;-89
2023/12/18 01:02:38;;;;;;;112.68;42.38;;;0.60;99.90;;;;;;5037108;28;20036;-89
2023/12/18 01:05:04;;;;;;;116.82;42.45;;;0.60;99.90;;;;;;5020423;28;20372;-89
2023/12/18 01:07:30;;;;;;;116.47;42.83;;;0.60;99.90;;;;;;5037034;28;20034;-89
2023/12/18 01:09:58;;;;;;;111.00;42.30;;;0.60;99.90;;;;;;5037131;28;20385;-89
2023/12/18 01:12:27;;;;;;;121.20;44.10;;;0.70;99.90;;;;;;5038583;28;20033;-89
2023/12/18 01:14:53;;;;;;;111.07;43.33;;;0.70;99.90;;;;;;5036911;28;20037;-89
2023/12/18 01:17:53;;;;;;;111.13;42.50;;;0.70;99.90;;;;;;5036098;28;20060;-89
2023/12/18 01:20:19;;;;;;;104.78;40.72;;;0.70;99.90;;;;;;5036418;28;20536;-89
2023/12/18 01:22:45;;;;;;;114.75;41.80;;;0.70;99.90;;;;;;5036227;28;20035;-89
2023/12/18 01:25:11;;;;;;;116.00;41.97;;;0.70;99.90;;;;;;5036337;28;20452;-89
2023/12/18 01:27:36;;;;;;;115.85;43.30;;;0.70;99.90;;;;;;5020029;28;20045;-89
2023/12/18 01:30:02;;;;;;;115.15;42.53;;;0.80;99.90;;;;;;5037442;28;20384;-89
2023/12/18 01:32:28;;;;;;;110.53;40.60;;;0.70;99.90;;;;;;5036367;28;20096;-89
2023/12/18 01:34:54;;;;;;;118.97;43.65;;;0.60;99.90;;;;;;5036588;28;20116;-89
2023/12/18 01:37:20;;;;;;;128.75;45.70;;;0.60;99.90;;;;;;5018979;28;20033;-89
2023/12/18 01:39:46;;;;;;;124.32;43.40;;;0.60;99.90;;;;;;5036977;28;20036;-89
2023/12/18 01:42:11;;;;;;;126.25;45.13;;;0.60;99.90;;;;;;5036550;28;20017;-89
2023/12/18 01:44:37;;;;;;;139.82;46.35;;;0.60;99.90;;;;;;5035855;28;20030;-89
2023/12/18 01:47:03;;;;;;;131.57;45.47;;;0.70;99.90;;;;;;5036064;28;20465;-89
2023/12/18 01:49:30;;;;;;;127.28;42.97;;;0.60;99.90;;;;;;5035701;28;20033;-89
2023/12/18 01:51:55;;;;;;;131.63;45.38;;;0.60;99.90;;;;;;5036134;28;20036;-89
2023/12/18 01:54:25;;;;;;;124.85;44.67;;;0.60;99.90;;;;;;5035416;28;20049;-89
2023/12/18 01:56:52;;;;;;;113.50;42.97;;;0.70;99.90;;;;;;5035415;28;20063;-89
2023/12/18 01:59:20;;;;;;;113.10;41.47;;;0.60;99.90;;;;;;5035658;28;20057;-89
2023/12/18 02:01:46;;;;;;;116.57;41.72;;;0.70;99.90;;;;;;5035513;28;20033;-88
2023/12/18 02:04:12;;;;;;;108.45;40.30;;;0.80;99.90;;;;;;5035858;28;20528;-89
2023/12/18 02:06:38;;;;;;;115.75;41.40;;;0.80;99.90;;;;;;5035433;28;20068;-89
2023/12/18 02:09:04;;;;;;;100.00;39.45;;;0.80;99.90;;;;;;5035600;28;20072;-89
2023/12/18 02:11:30;;;;;;;106.70;38.05;;;0.80;99.90;;;;;;5035866;28;20025;-89
2023/12/18 02:13:56;;;;;;;102.97;37.88;;;0.70;99.90;;;;;;5034086;28;20036;-89
2023/12/18 02:16:22;;;;;;;95.10;38.65;;;0.80;99.90;;;;;;5034763;28;20037;-89
2023/12/18 02:18:48;;;;;;;98.07;37.38;;;0.70;99.90;;;;;;5035905;28;20029;-89
2023/12/18 02:21:21;;;;;;;99.35;37.90;;;0.80;99.90;;;;;;5036286;28;20026;-89
2023/12/18 02:23:50;;;;;;;105.57;39.80;;;0.80;99.90;;;;;;5036081;28;20029;-89
2023/12/18 02:26:29;;;;;;;94.88;35.42;;;0.80;99.90;;;;;;5053174;28;20021;-89
2023/12/18 02:28:54;;;;;;;91.15;35.95;;;0.80;99.90;;;;;;5056305;28;20053;-88
2023/12/18 02:31:20;;;;;;;86.90;34.00;;;0.90;99.90;;;;;;5055946;28;20033;-89
2023/12/18 02:33:49;;;;;;;80.10;31.65;;;0.80;99.90;;;;;;5040451;28;20026;-88
2023/12/18 02:36:15;;;;;;;82.53;31.83;;;0.80;99.90;;;;;;5041321;28;20037;-88
2023/12/18 02:38:41;;;;;;;78.90;31.92;;;0.80;99.90;;;;;;5039973;28;20493;-89
2023/12/18 02:41:07;;;;;;;77.78;29.67;;;0.90;99.90;;;;;;5038252;28;20161;-89
2023/12/18 02:43:32;;;;;;;72.60;29.40;;;0.80;99.90;;;;;;5020942;28;20033;-89
2023/12/18 02:45:58;;;;;;;74.75;29.30;;;0.80;99.90;;;;;;5036209;28;20087;-89
2023/12/18 02:48:24;;;;;;;64.03;28.55;;;0.70;99.90;;;;;;5035893;28;20029;-89
2023/12/18 02:50:49;;;;;;;67.88;27.88;;;0.70;99.90;;;;;;5035401;28;20029;-89
2023/12/18 02:53:17;;;;;;;72.28;27.52;;;0.70;99.90;;;;;;5035910;28;20062;-89
2023/12/18 02:55:43;;;;;;;59.58;26.75;;;0.60;99.90;;;;;;5035222;28;20037;-89
2023/12/18 02:58:08;;;;;;;67.93;28.52;;;0.50;99.90;;;;;;5034251;28;20033;-89
2023/12/18 03:00:34;;;;;;;64.93;27.77;;;0.70;99.90;;;;;;5034670;28;20029;-89
2023/12/18 03:03:00;;;;;;;71.55;28.33;;;0.80;99.90;;;;;;5018511;28;20029;-90
2023/12/18 03:05:26;;;;;;;66.68;27.55;;;0.70;99.90;;;;;;5034173;28;20033;-90
2023/12/18 03:07:51;;;;;;;68.07;28.50;;;0.70;99.90;;;;;;5034417;28;20392;-89
2023/12/18 03:10:17;;;;;;;68.15;28.45;;;0.70;99.90;;;;;;5034356;28;20033;-88
2023/12/18 03:12:42;;;;;;;65.80;27.30;;;0.70;99.90;;;;;;5034267;28;20037;-89
2023/12/18 03:15:09;;;;;;;71.63;27.85;;;0.70;99.90;;;;;;5035149;28;20080;-89
2023/12/18 03:17:35;;;;;;;75.00;30.10;;;0.80;99.90;;;;;;5035302;28;20034;-89
2023/12/18 03:20:00;;;;;;;71.93;30.05;;;0.80;99.90;;;;;;5033906;28;20025;-89
2023/12/18 03:22:26;;;;;;;70.78;29.65;;;0.70;99.90;;;;;;5033987;28;20060;-89
2023/12/18 03:24:51;;;;;;;72.90;29.98;;;0.70;99.90;;;;;;5033662;28;20495;-89
2023/12/18 03:28:04;;;;;;;77.20;31.52;;;0.70;99.90;;;;;;5017632;28;20060;-90
2023/12/18 03:30:30;;;;;;;78.07;30.58;;;0.60;99.90;;;;;;5017138;28;20026;-89
2023/12/18 03:32:55;;;;;;;83.03;31.88;;;0.40;99.90;;;;;;5033606;28;20392;-89
2023/12/18 03:35:21;;;;;;;81.15;32.45;;;0.30;99.90;;;;;;5034197;28;20049;-89
2023/12/18 03:37:47;;;;;;;79.90;32.78;;;0.10;99.90;;;;;;5033631;28;20037;-89
2023/12/18 03:40:12;;;;;;;78.72;32.85;;;0.10;99.90;;;;;;5033892;28;20029;-89
2023/12/18 03:42:39;;;;;;;80.57;32.92;;;0.10;99.90;;;;;;5033059;28;20426;-90
2023/12/18 03:45:06;;;;;;;87.20;33.50;;;0.00;99.90;;;;;;5033924;28;20064;-89
2023/12/18 03:47:31;;;;;;;86.97;34.45;;;0.10;99.90;;;;;;5033996;28;20044;-90
2023/12/18 03:49:57;;;;;;;95.13;35.30;;;0.00;99.90;;;;;;5035459;28;20025;-89
2023/12/18 03:52:23;;;;;;;94.82;35.67;;;0.00;99.90;;;;;;5034677;28;20508;-89
2023/12/18 03:54:48;;;;;;;93.88;35.10;;;0.20;99.90;;;;;;5033670;28;20044;-89
2023/12/18 03:57:15;;;;;;;112.95;38.20;;;0.10;99.90;;;;;;5033121;28;20168;-89
2023/12/18 03:59:41;;;;;;;96.20;35.92;;;0.00;99.90;;;;;;5034055;28;20045;-89
2023/12/18 04:02:06;;;;;;;91.25;35.97;;;0.00;99.90;;;;;;5018050;28;20068;-89
2023/12/18 04:04:32;;;;;;;92.95;36.67;;;-0.10;99.90;;;;;;5033830;28;20029;-88
2023/12/18 04:06:58;;;;;;;96.10;35.80;;;-0.10;99.90;;;;;;5033522;28;20034;-89
2023/12/18 04:09:23;;;;;;;111.95;39.25;;;-0.20;99.90;;;;;;5016961;28;20469;-89
2023/12/18 04:11:49;;;;;;;104.85;38.13;;;-0.20;99.90;;;;;;5033716;28;20116;-89
2023/12/18 04:14:15;;;;;;;97.38;38.67;;;-0.20;99.90;;;;;;5034407;28;20515;-89
2023/12/18 04:16:40;;;;;;;114.80;41.42;;;-0.20;99.90;;;;;;5033299;28;20148;-89
2023/12/18 04:19:06;;;;;;;115.22;42.25;;;0.00;99.90;;;;;;5016826;28;20040;-89
2023/12/18 04:21:32;;;;;;;121.80;44.03;;;0.10;99.90;;;;;;5033448;28;20033;-89
2023/12/18 04:23:57;;;;;;;110.70;40.60;;;0.10;99.90;;;;;;5032964;28;20440;-89
2023/12/18 04:26:23;;;;;;;105.15;38.45;;;0.10;99.90;;;;;;5033843;28;20030;-89
2023/12/18 04:28:49;;;;;;;101.57;39.30;;;0.10;99.90;;;;;;5033726;28;20416;-89
2023/12/18 04:31:19;;;;;;;107.20;41.40;;;0.10;99.90;;;;;;5033309;28;20568;-89
2023/12/18 04:33:44;;;;;;;114.10;41.95;;;0.00;99.90;;;;;;5033190;28;20033;-89
2023/12/18 04:36:10;;;;;;;114.57;42.60;;;0.00;99.90;;;;;;5033653;28;20036;-89
2023/12/18 04:38:37;;;;;;;129.85;48.40;;;-0.10;99.90;;;;;;5036310;28;20087;-89
2023/12/18 04:41:03;;;;;;;128.50;49.55;;;0.00;99.90;;;;;;5037583;28;20036;-89
2023/12/18 04:43:29;;;;;;;121.22;45.13;;;0.00;99.90;;;;;;5037957;28;20025;-89
2023/12/18 04:45:55;;;;;;;121.32;44.45;;;0.00;99.90;;;;;;5020574;28;20021;-89
2023/12/18 04:48:20;;;;;;;113.53;42.22;;;-0.10;99.90;;;;;;5020447;28;20120;-89
2023/12/18 04:50:46;;;;;;;120.32;45.00;;;-0.10;99.90;;;;;;5036889;28;20025;-89
2023/12/18 04:53:12;;;;;;;113.60;42.35;;;-0.10;99.90;;;;;;5036932;28;20127;-89
2023/12/18 04:55:37;;;;;;;108.97;41.47;;;-0.10;99.90;;;;;;5036715;28;20041;-89
2023/12/18 04:58:03;;;;;;;108.68;41.50;;;-0.30;99.90;;;;;;5036132;28;20025;-88
2023/12/18 05:00:29;;;;;;;109.57;41.70;;;-0.40;99.90;;;;;;5036192;28;20393;-88
2023/12/18 05:02:54;;;;;;;109.28;40.55;;;-0.50;99.90;;;;;;5037275;28;20030;-89
2023/12/18 05:05:22;;;;;;;113.85;41.00;;;-0.60;99.90;;;;;;5019902;28;20029;-89
2023/12/18 05:07:48;;;;;;;105.38;38.75;;;-0.70;99.90;;;;;;5036452;28;20072;-89
2023/12/18 05:10:13;;;;;;;114.07;38.88;;;-0.80;99.90;;;;;;5037061;28;20034;-89
2023/12/18 05:12:39;;;;;;;109.68;40.40;;;-0.80;99.90;;;;;;5037192;28;20025;-89
2023/12/18 05:15:05;;;;;;;102.25;38.58;;;-0.90;99.90;;;;;;5036621;28;20132;-89
2023/12/18 05:17:31;;;;;;;91.30;36.42;;;-1.00;99.90;;;;;;5035998;28;20041;-89
2023/12/18 05:19:57;;;;;;;111.40;38.72;;;-1.10;99.90;;;;;;5036616;28;20136;-89
2023/12/18 05:22:22;;;;;;;106.05;37.45;;;-1.10;99.90;;;;;;5037920;28;20021;-89
2023/12/18 05:24:48;;;;;;;100.63;38.10;;;-1.10;99.90;;;;;;5036077;28;20033;-89
2023/12/18 05:27:14;;;;;;;93.63;35.78;;;-1.20;99.90;;;;;;5036139;28;20535;-90
2023/12/18 05:29:39;;;;;;;100.30;35.90;;;-1.10;99.90;;;;;;5035919;28;20480;-89
2023/12/18 05:32:05;;;;;;;95.68;37.50;;;-1.20;99.90;;;;;;5036172;28;20034;-89
2023/12/18 05:34:43;;;;;;;90.63;37.55;;;-1.20;99.90;;;;;;5035727;28;20067;-89
2023/12/18 05:37:09;;;;;;;103.82;39.60;;;-1.20;99.90;;;;;;5035461;28;20034;-89
2023/12/18 05:39:35;;;;;;;101.72;38.17;;;-0.90;99.90;;;;;;5020608;28;20036;-89
2023/12/18 05:42:00;;;;;;;98.80;39.70;;;-1.00;99.90;;;;;;5036001;28;20025;-89
2023/12/18 05:44:26;;;;;;;83.38;32.22;;;-1.10;99.90;;;;;;5035627;28;20533;-89
2023/12/18 05:46:51;;;;;;;81.45;30.48;;;-1.10;99.90;;;;;;5035832;28;20029;-89
2023/12/18 05:49:17;;;;;;;65.85;26.35;;;-1.10;99.90;;;;;;5036207;28;20030;-89
2023/12/18 05:51:43;;;;;;;62.03;24.20;;;-1.20;99.90;;;;;;5018903;28;20428;-89
2023/12/18 05:54:08;;;;;;;59.83;21.85;;;-1.00;99.90;;;;;;5035288;28;20033;-89
2023/12/18 05:56:34;;;;;;;64.55;23.48;;;-0.90;99.90;;;;;;5035615;28;20029;-89
2023/12/18 05:59:00;;;;;;;58.58;21.75;;;-0.80;99.90;;;;;;5035350;28;20346;-89
2023/12/18 06:01:26;;;;;;;57.15;21.83;;;-0.80;99.90;;;;;;5035700;28;20021;-89
2023/12/18 06:03:51;;;;;;;61.90;23.50;;;-0.80;99.90;;;;;;5035596;28;20037;-89
2023/12/18 06:06:17;;;;;;;61.17;22.73;;;-0.60;99.90;;;;;;5035417;28;20087;-88
2023/12/18 06:08:43;;;;;;;53.40;21.98;;;-0.50;99.90;;;;;;5035156;28;20021;-89
2023/12/18 06:11:08;;;;;;;53.80;23.20;;;-0.40;99.90;;;;;;5035357;28;20535;-90
2023/12/18 06:13:34;;;;;;;53.13;21.98;;;-0.20;99.90;;;;;;5018776;28;20040;-89
2023/12/18 06:16:01;;;;;;;58.72;22.58;;;-0.10;99.90;;;;;;5035391;28;20033;-89
2023/12/18 06:18:27;;;;;;;56.92;24.20;;;0.00;99.90;;;;;;5035301;28;20029;-89
2023/12/18 06:20:52;;;;;;;55.03;24.08;;;0.00;99.90;;;;;;5035042;28;20044;-89
2023/12/18 06:23:18;;;;;;;51.92;23.33;;;0.00;99.90;;;;;;5035421;28;20052;-89
2023/12/18 06:25:44;;;;;;;53.88;23.30;;;0.20;99.90;;;;;;5034812;28;20017;-89
2023/12/18 06:28:09;;;;;;;57.17;24.25;;;0.40;99.90;;;;;;5035109;28;20033;-89
2023/12/18 06:30:35;;;;;;;57.40;23.95;;;0.50;99.90;;;;;;5035529;28;20416;-89
2023/12/18 06:33:00;;;;;;;54.25;24.25;;;0.50;99.90;;;;;;5035342;28;20030;-89
2023/12/18 06:35:26;;;;;;;61.20;24.30;;;0.50;99.90;;;;;;5034792;28;20392;-90
2023/12/18 06:37:52;;;;;;;55.67;24.13;;;0.50;99.90;;;;;;5034726;28;20025;-90
2023/12/18 06:40:17;;;;;;;63.45;25.42;;;0.50;99.90;;;;;;5036148;28;20120;-89
2023/12/18 06:42:43;;;;;;;61.33;24.92;;;0.50;99.90;;;;;;5035060;28;20396;-88
2023/12/18 06:45:09;;;;;;;57.22;25.48;;;0.70;99.90;;;;;;5035992;28;20079;-89
2023/12/18 06:47:35;;;;;;;61.65;26.17;;;0.70;99.90;;;;;;5034813;28;20084;-89
2023/12/18 06:50:00;;;;;;;68.40;26.35;;;0.70;99.90;;;;;;5034675;28;20037;-90
2023/12/18 06:52:26;;;;;;;65.03;27.27;;;0.70;99.90;;;;;;5019049;28;20435;-89
2023/12/18 06:54:52;;;;;;;70.28;27.55;;;0.70;99.90;;;;;;5034387;28;20048;-89
2023/12/18 06:57:17;;;;;;;77.35;30.13;;;0.60;99.90;;;;;;5034723;28;20508;-89
2023/12/18 06:59:43;;;;;;;66.78;27.75;;;0.60;99.90;;;;;;5050766;28;20160;-89
2023/12/18 07:02:09;;;;;;;79.43;28.42;;;0.60;99.90;;;;;;5034911;28;20026;-89
2023/12/18 07:04:34;;;;;;;69.85;27.77;;;0.60;99.90;;;;;;5017905;28;20030;-89
2023/12/18 07:07:00;;;;;;;68.15;28.67;;;0.70;99.90;;;;;;5034127;28;20029;-89
2023/12/18 07:09:26;;;;;;;63.72;27.40;;;0.60;99.90;;;;;;5034774;28;20033;-90
2023/12/18 07:11:52;;;;;;;67.97;25.52;;;0.50;99.90;;;;;;5034229;28;20500;-89
2023/12/18 07:14:18;;;;;;;51.10;23.63;;;0.50;99.90;;;;;;5034572;28;20028;-89
2023/12/18 07:16:43;;;;;;;47.80;22.90;;;0.50;99.90;;;;;;5033990;28;20030;-90
2023/12/18 07:19:09;;;;;;;55.20;22.83;;;0.40;99.90;;;;;;5032895;28;20366;-87
2023/12/18 07:21:35;;;;;;;55.40;21.67;;;0.30;99.90;;;;;;5014987;28;20028;-87
2023/12/18 07:24:01;;;;;;;55.83;22.38;;;0.20;99.90;;;;;;5031555;28;20550;-87
2023/12/18 07:26:27;;;;;;;53.15;21.23;;;0.20;99.90;;;;;;5031549;28;20127;-87
2023/12/18 07:28:52;;;;;;;46.40;20.95;;;0.20;99.90;;;;;;5031810;28;20037;-87
2023/12/18 07:31:18;;;;;;;48.63;20.75;;;0.20;99.90;;;;;;5016799;28;20037;-87
2023/12/18 07:33:44;;;;;;;43.67;18.83;;;0.20;99.90;;;;;;5031158;28;20432;-87
2023/12/18 07:36:10;;;;;;;42.92;18.88;;;0.30;99.90;;;;;;5031070;28;20167;-87
2023/12/18 07:38:36;;;;;;;38.33;16.90;;;0.40;99.90;;;;;;5032722;28;20584;-87
2023/12/18 07:41:05;;;;;;;40.55;17.67;;;0.50;99.90;;;;;;5031322;28;20040;-87
2023/12/18 07:43:30;;;;;;;34.97;16.67;;;0.60;99.90;;;;;;5031680;28;20033;-87
2023/12/18 07:45:56;;;;;;;35.80;17.17;;;0.60;99.90;;;;;;5030521;28;20124;-87
2023/12/18 07:48:24;;;;;;;36.47;16.80;;;0.70;99.90;;;;;;5031514;28;20144;-87
2023/12/18 07:50:50;;;;;;;39.85;17.83;;;0.70;99.90;;;;;;5030535;28;20041;-87
2023/12/18 07:53:17;;;;;;;40.35;18.05;;;0.70;99.90;;;;;;5030426;28;20029;-87
2023/12/18 07:55:43;;;;;;;41.38;18.00;;;0.70;99.90;;;;;;5031305;28;20034;-87
2023/12/18 07:58:09;;;;;;;38.63;17.80;;;0.80;99.90;;;;;;5031762;28;20045;-86
2023/12/18 08:00:34;;;;;;;39.53;19.92;;;0.80;99.90;;;;;;5031484;28;20799;-87
2023/12/18 08:03:02;;;;;;;33.15;16.02;;;0.80;99.90;;;;;;5014694;28;20436;-87
2023/12/18 08:05:28;;;;;;;31.58;15.48;;;0.80;99.90;;;;;;5031084;28;20033;-86
2023/12/18 08:07:54;;;;;;;40.00;20.50;;;0.90;99.90;;;;;;5013588;28;20037;-88
2023/12/18 08:10:20;;;;;;;38.42;18.85;;;0.90;99.90;;;;;;5030719;28;20041;-88
2023/12/18 08:12:45;;;;;;;33.45;15.93;;;1.00;99.90;;;;;;5032631;28;20370;-88
2023/12/18 08:15:12;;;;;;;35.33;16.73;;;1.10;99.90;;;;;;5034035;28;20744;-87
2023/12/18 08:17:41;;;;;;;33.78;16.17;;;1.20;99.90;;;;;;5035240;28;20056;-87
2023/12/18 08:20:07;;;;;;;31.58;15.98;;;1.20;99.90;;;;;;5034083;28;20033;-87
2023/12/18 08:22:34;;;;;;;32.28;17.27;;;1.30;99.90;;;;;;5034381;28;20037;-87
2023/12/18 08:25:02;;;;;;;33.33;16.17;;;1.40;99.90;;;;;;5034239;28;20735;-87
2023/12/18 08:27:32;;;;;;;33.45;16.35;;;1.50;99.90;;;;;;5034227;28;20052;-87
2023/12/18 08:29:58;;;;;;;36.97;17.80;;;1.50;99.90;;;;;;5034277;28;20029;-87
2023/12/18 08:32:24;;;;;;;31.58;16.95;;;1.50;99.90;;;;;;5033522;28;20029;-88
2023/12/18 08:34:50;;;;;;;34.72;16.83;;;1.60;99.90;;;;;;5017283;28;20112;-88
2023/12/18 08:37:16;;;;;;;39.40;17.85;;;1.70;99.90;;;;;;5034137;28;20026;-87
2023/12/18 08:39:42;;;;;;;32.67;14.90;;;1.70;99.90;;;;;;5051802;28;20128;-88
2023/12/18 08:42:09;;;;;;;38.78;18.52;;;1.80;99.90;;;;;;5035948;28;20053;-88
2023/12/18 08:44:34;;;;;;;27.10;14.07;;;1.70;99.90;;;;;;5035981;28;20401;-88
2023/12/18 08:47:02;;;;;;;50.35;22.30;;;1.70;99.90;;;;;;5035706;28;20074;-88
2023/12/18 08:49:28;;;;;;;45.60;21.85;;;1.70;99.90;;;;;;5034947;28;20053;-88
2023/12/18 08:51:54;;;;;;;57.25;26.08;;;1.70;99.90;;;;;;5035166;28;20038;-88
2023/12/18 08:54:20;;;;;;;38.20;17.35;;;1.70;99.90;;;;;;5034861;28;20034;-88
2023/12/18 08:56:47;;;;;;;25.92;13.23;;;1.80;99.90;;;;;;5034907;28;20036;-87
2023/12/18 08:59:13;;;;;;;24.45;12.40;;;1.90;99.90;;;;;;5034362;28;20040;-88
2023/12/18 09:01:39;;;;;;;24.85;13.48;;;1.90;99.90;;;;;;5018218;28;20029;-88
2023/12/18 09:04:06;;;;;;;21.90;11.60;;;2.00;99.90;;;;;;5033976;28;20396;-88
2023/12/18 09:06:34;;;;;;;23.55;12.30;;;2.20;99.90;;;;;;5033466;28;20048;-87
2023/12/18 09:09:01;;;;;;;21.60;11.50;;;2.30;99.90;;;;;;5034029;28;20594;-87
2023/12/18 09:11:29;;;;;;;22.40;11.30;;;2.40;99.90;;;;;;5033530;28;20044;-87
2023/12/18 09:13:56;;;;;;;23.23;12.50;;;2.50;99.90;;;;;;5033837;28;20037;-87
2023/12/18 09:16:22;;;;;;;25.38;11.57;;;2.50;99.90;;;;;;5033946;28;20029;-88
2023/12/18 09:18:48;;;;;;;24.85;12.85;;;2.50;99.90;;;;;;5034109;28;20489;-88
2023/12/18 09:21:14;;;;;;;20.65;11.02;;;2.50;99.90;;;;;;5033046;28;20084;-87
2023/12/18 09:23:41;;;;;;;21.40;11.30;;;2.60;99.90;;;;;;5034357;28;20026;-86
2023/12/18 09:26:07;;;;;;;19.02;10.48;;;2.60;99.90;;;;;;5033523;28;20075;-87
2023/12/18 09:28:34;;;;;;;22.67;11.30;;;2.70;99.90;;;;;;5032642;28;20037;-88
2023/12/18 09:30:59;;;;;;;22.40;10.77;;;2.60;99.90;;;;;;5033299;28;20076;-88
2023/12/18 09:33:25;;;;;;;15.48;9.15;;;2.70;99.90;;;;;;5017098;28;20029;-88
2023/12/18 09:35:51;;;;;;;19.48;9.82;;;2.80;99.90;;;;;;5035099;28;20040;-88
2023/12/18 09:38:16;;;;;;;15.35;8.55;;;3.00;99.90;;;;;;5033418;28;20057;-88
2023/12/18 09:40:44;;;;;;;13.38;7.85;;;3.30;99.90;;;;;;5050211;28;20116;-88
2023/12/18 09:43:16;;;;;;;12.93;7.10;;;3.80;99.90;;;;;;5016741;28;20493;-88
2023/12/18 09:45:42;;;;;;;14.27;7.72;;;4.60;99.90;;;;;;5016551;28;20033;-88
2023/12/18 09:48:08;;;;;;;20.27;11.95;;;5.70;99.90;;;;;;5034333;28;20040;-88
2023/12/18 09:50:34;;;;;;;13.00;8.55;;;6.30;99.90;;;;;;5033352;28;20130;-89
2023/12/18 09:53:09;;;;;;;11.70;7.68;;;6.70;99.90;;;;;;5017479;28;20065;-88
2023/12/18 09:55:35;;;;;;;10.90;7.13;;;7.30;99.90;;;;;;5017536;28;20041;-87
2023/12/18 09:58:02;;;;;;;7.45;4.57;;;7.50;99.90;;;;;;5050122;28;20048;-88
2023/12/18 10:00:28;;;;;;;11.15;6.03;;;7.50;99.90;;;;;;5017040;28;20060;-89
2023/12/18 10:02:56;;;;;;;10.88;6.68;;;7.70;99.90;;;;;;5033556;28;20143;-88
2023/12/18 10:05:22;;;;;;;10.00;5.90;;;7.80;99.90;;;;;;5017882;28;20025;-88
2023/12/18 10:07:48;;;;;;;8.65;4.30;;;7.90;99.90;;;;;;5034483;28;20033;-89
2023/12/18 10:10:15;;;;;;;7.22;5.63;;;8.00;99.90;;;;;;5033792;28;20029;-88
2023/12/18 10:12:41;;;;;;;8.23;4.82;;;7.70;99.90;;;;;;5034213;28;20037;-87
2023/12/18 10:15:08;;;;;;;6.40;4.55;;;7.50;99.90;;;;;;5016882;28;20456;-88
2023/12/18 10:17:34;;;;;;;7.32;4.70;;;7.10;99.90;;;;;;5016942;28;20392;-89
2023/12/18 10:20:03;;;;;;;8.45;5.38;;;7.00;99.90;;;;;;5017551;28;20047;-88
2023/12/18 10:22:29;;;;;;;11.38;5.80;;;7.10;99.90;;;;;;5034037;28;20350;-88
2023/12/18 10:24:58;;;;;;;9.15;5.85;;;7.10;99.90;;;;;;5033756;28;20083;-88
2023/12/18 10:27:24;;;;;;;8.93;6.00;;;7.00;99.90;;;;;;5033621;28;20116;-88
2023/12/18 10:29:50;;;;;;;8.10;5.07;;;6.80;99.90;;;;;;5017101;28;20068;-88
2023/12/18 10:32:20;;;;;;;7.75;5.20;;;6.80;99.90;;;;;;5016587;28;20071;-88
2023/12/18 10:34:46;;;;;;;8.52;5.43;;;6.50;99.90;;;;;;5015989;28;20500;-88
2023/12/18 10:37:12;;;;;;;8.05;5.55;;;6.30;99.90;;;;;;5033658;28;20026;-89
2023/12/18 10:39:41;;;;;;;8.13;5.00;;;6.10;99.90;;;;;;5050485;28;20030;-88
2023/12/18 10:42:23;;;;;;;10.32;7.10;;;6.00;99.90;;;;;;5034464;28;20030;-88
2023/12/18 10:44:50;;;;;;;9.27;5.18;;;5.90;99.90;;;;;;5034751;28;20486;-88
2023/12/18 10:47:18;;;;;;;7.47;5.32;;;5.90;99.90;;;;;;5034611;28;20176;-88
2023/12/18 10:49:45;;;;;;;8.93;5.20;;;5.90;99.90;;;;;;5034447;28;20026;-88
2023/12/18 10:52:14;;;;;;;10.38;5.78;;;5.90;99.90;;;;;;5049971;28;20033;-88
2023/12/18 10:54:41;;;;;;;8.38;5.30;;;5.80;99.90;;;;;;5016395;28;20114;-88
2023/12/18 10:57:08;;;;;;;9.68;5.38;;;5.70;99.90;;;;;;5016555;28;20037;-88
2023/12/18 10:59:35;;;;;;;19.38;6.03;;;5.60;99.90;;;;;;5016197;28;20048;-88
2023/12/18 11:02:02;;;;;;;7.80;4.60;;;5.60;99.90;;;;;;5016681;28;20030;-88
2023/12/18 11:04:29;;;;;;;7.78;4.57;;;5.70;99.90;;;;;;5016408;28;20557;-88
2023/12/18 11:07:04;;;;;;;6.72;3.53;;;5.90;99.90;;;;;;5015880;28;20041;-88
2023/12/18 11:09:30;;;;;;;5.15;3.45;;;6.30;99.90;;;;;;5032799;28;20026;-87
2023/12/18 11:11:57;;;;;;;7.63;3.58;;;6.40;99.90;;;;;;5032315;28;20028;-88
2023/12/18 11:14:38;;;;;;;7.18;3.78;;;6.30;99.90;;;;;;5033190;28;20025;-88
2023/12/18 11:17:38;;;;;;;7.97;4.75;;;6.30;99.90;;;;;;5015275;28;20037;-89
2023/12/18 11:20:16;;;;;;;7.87;4.17;;;6.40;99.90;;;;;;5015966;28;20370;-88
2023/12/18 11:22:48;;;;;;;6.95;3.95;;;6.40;99.90;;;;;;5015986;28;20859;-88
2023/12/18 11:25:16;;;;;;;6.40;4.03;;;6.30;99.90;;;;;;5048765;28;20071;-88
2023/12/18 11:27:45;;;;;;;5.75;3.63;;;6.30;99.90;;;;;;5015885;28;20140;-88
2023/12/18 11:30:34;;;;;;;6.97;3.85;;;6.40;99.90;;;;;;5015691;28;20087;-88
2023/12/18 11:33:08;;;;;;;6.05;3.78;;;6.80;99.90;;;;;;5015936;28;20044;-88
2023/12/18 11:35:35;;;;;;;8.02;3.53;;;7.20;99.90;;;;;;5015958;28;20065;-88
2023/12/18 11:38:12;;;;;;;6.40;4.05;;;7.40;99.90;;;;;;5015300;28;20038;-89
2023/12/18 11:40:42;;;;;;;7.40;4.32;;;7.80;99.90;;;;;;5015739;28;20025;-88
2023/12/18 11:43:12;;;;;;;9.55;4.85;;;8.10;99.90;;;;;;5015771;28;20033;-88
2023/12/18 11:45:43;;;;;;;7.75;4.47;;;8.10;99.90;;;;;;5015413;28;20025;-87
2023/12/18 11:48:14;;;;;;;9.20;5.55;;;8.20;99.90;;;;;;5035811;28;20029;-88
2023/12/18 11:50:40;;;;;;;11.90;5.13;;;8.10;99.90;;;;;;5019345;28;20083;-87
2023/12/18 11:56:55;;;;;;;10.32;6.32;;;7.20;99.90;;;;;;5035433;28;20048;-88
2023/12/18 11:59:23;;;;;;;7.03;4.53;;;6.80;99.90;;;;;;5035080;28;20481;-88
2023/12/18 12:01:51;;;;;;;11.00;6.70;;;6.60;99.90;;;;;;5019477;28;20048;-88
2023/12/18 12:04:16;;;;;;;17.60;10.18;;;6.50;99.90;;;;;;5018911;28;20431;-88
2023/12/18 12:06:44;;;;;;;12.32;7.82;;;6.60;99.90;;;;;;5035984;28;20175;-87
2023/12/18 12:09:10;;;;;;;9.10;5.30;;;6.60;99.90;;;;;;5018994;28;20477;-87
2023/12/18 12:11:36;;;;;;;8.18;4.90;;;6.60;99.90;;;;;;5019034;28;20167;-88
2023/12/18 12:14:02;;;;;;;8.90;4.25;;;6.50;99.90;;;;;;5019024;28;20033;-88
2023/12/18 12:16:28;;;;;;;8.70;4.10;;;6.50;99.90;;;;;;5018945;28;20028;-88
2023/12/18 12:18:58;;;;;;;7.55;4.03;;;6.50;99.90;;;;;;5019261;28;20036;-88
2023/12/18 12:21:24;;;;;;;6.30;3.80;;;6.40;99.90;;;;;;5018488;28;20080;-88
2023/12/18 12:23:50;;;;;;;9.15;3.80;;;6.40;99.90;;;;;;5019166;28;20033;-88
2023/12/18 12:26:45;;;;;;;8.48;4.00;;;6.30;99.90;;;;;;5052045;28;20033;-88
2023/12/18 12:29:14;;;;;;;14.68;5.15;;;6.30;99.90;;;;;;5051834;28;20036;-88
2023/12/18 12:31:42;;;;;;;14.25;5.40;;;6.20;99.90;;;;;;5034585;28;20033;-88
2023/12/18 12:34:11;;;;;;;15.95;5.38;;;6.20;99.90;;;;;;5035576;28;20507;-88
2023/12/18 12:36:37;;;;;;;16.50;4.57;;;6.20;99.90;;;;;;5017787;28;20400;-87
2023/12/18 12:39:05;;;;;;;15.05;5.13;;;6.10;99.90;;;;;;5034152;28;20128;-88
2023/12/18 12:41:31;;;;;;;13.25;5.53;;;6.10;99.90;;;;;;5037798;28;20037;-87